This is the latest recevied weather packets stored in our database for station/object PY2KO-13. If no packets are shown the sender has not sent any weather packets the latest 10 day(s).
| Time | Temp. | Humidity | Pressure | Rain* | Wind** | Luminosity | Snow |
|---|---|---|---|---|---|---|---|
| 1777486505 | 22.78° C | 85% | 1016.3 hPa | - | - | - | - |
| 1777484705 | 23.33° C | 86% | 1015.9 hPa | - | - | - | - |
| 1777482905 | 27.78° C | 60% | 1015.3 hPa | - | - | - | - |
| 1777481105 | 29.44° C | 52% | 1015.5 hPa | - | - | - | - |
| 1777479305 | 29.44° C | 52% | 1015.8 hPa | - | - | - | - |
| 1777477504 | 29.44° C | 51% | 1016.2 hPa | - | - | - | - |
| 1777475705 | 29.44° C | 54% | 1016.5 hPa | - | - | - | - |
| 1777473905 | 29.44° C | 54% | 1016.8 hPa | - | - | - | - |
| 1777472105 | 28.33° C | 59% | 1017.4 hPa | - | - | - | - |
| 1777470305 | 27.78° C | 62% | 1017.8 hPa | - | - | - | - |
| 1777468504 | 26.67° C | 67% | 1018.3 hPa | - | - | - | - |
| 1777466705 | 26.67° C | 67% | 1018.4 hPa | - | - | - | - |
| 1777464904 | 25.56° C | 73% | 1018.2 hPa | - | - | - | - |
| 1777463105 | 25.56° C | 74% | 1018.1 hPa | - | - | - | - |
| 1777461305 | 24.44° C | 79% | 1018.1 hPa | - | - | - | - |
| 1777459504 | 23.89° C | 81% | 1017.8 hPa | - | - | - | - |
| 1777457704 | 23.33° C | 83% | 1017.5 hPa | - | - | - | - |
| 1777455905 | 23.33° C | 83% | 1017.3 hPa | - | - | - | - |
| 1777454105 | 23.33° C | 85% | 1017 hPa | - | - | - | - |
| 1777452305 | 23.33° C | 84% | 1016.6 hPa | - | - | - | - |
| 1777450505 | 23.33° C | 85% | 1016.4 hPa | - | - | - | - |
| 1777448704 | 23.89° C | 82% | 1016.2 hPa | - | - | - | - |
| 1777446905 | 23.33° C | 83% | 1016.3 hPa | - | - | - | - |
| 1777445105 | 23.33° C | 84% | 1016.7 hPa | - | - | - | - |
| 1777443304 | 23.33° C | 84% | 1016.7 hPa | - | - | - | - |
* Rain since midnight (hover to see other rain measurements)
** Current wind speed in m/s (hover to see current wind gust speed)